Airport ID:K0A0
Update Time (UTC):29/05/2020 19:58
Wind Speed (Knots):7
Wind Direction (Magnetic):130
Temperature (°C):31.4
Dew Point (°C):3.3
Humidity (%):16.7
Altimeter (inHg):30.23
Density Altitude (Feet):07200
Visibility (Miles):10
Clouds (Hundreds of feet):CLR
Present Weather:
METAR:METAR K0A0 291955Z AUTO 15012G17KT 10SM CLR 32/03 A3024 RMK AO2

The data displayed is for advisory purposes only and is not to be used for flight planning or operations.